createdAt,value
2023-03-08T00:00:16.001Z,2.90
2023-03-08T00:04:17.943Z,2.90
2023-03-08T00:08:19.870Z,3.00
2023-03-08T00:12:22.808Z,3.00
2023-03-08T00:16:24.758Z,3.00
2023-03-08T00:20:26.704Z,2.90
2023-03-08T00:24:28.621Z,2.90
2023-03-08T00:28:30.641Z,2.90
2023-03-08T00:32:32.697Z,2.90
2023-03-08T00:36:34.537Z,2.70
2023-03-08T00:40:36.317Z,2.70
2023-03-08T00:44:38.134Z,2.80
2023-03-08T00:48:40.088Z,2.90
2023-03-08T00:52:41.911Z,2.90
2023-03-08T00:56:43.725Z,3.00
2023-03-08T01:00:45.818Z,2.80
2023-03-08T01:04:47.618Z,2.70
2023-03-08T01:08:49.429Z,2.70
2023-03-08T01:12:51.552Z,2.80
2023-03-08T01:16:53.345Z,2.70
2023-03-08T01:21:00.159Z,2.80
2023-03-08T01:25:01.965Z,2.90
2023-03-08T01:29:03.808Z,3.00
2023-03-08T01:33:05.704Z,3.10
2023-03-08T01:37:07.455Z,3.00
2023-03-08T01:41:17.892Z,3.10
2023-03-08T01:46:23.232Z,3.10
2023-03-08T01:50:25.008Z,3.10
2023-03-08T01:54:53.693Z,2.90
2023-03-08T01:58:55.476Z,2.90
2023-03-08T02:03:00.525Z,2.80
2023-03-08T02:07:02.498Z,2.70
2023-03-08T02:11:04.430Z,2.70
2023-03-08T02:15:07.984Z,2.60
2023-03-08T02:19:22.121Z,2.60
2023-03-08T02:23:24.964Z,2.70
2023-03-08T02:27:27.054Z,2.70
2023-03-08T02:31:28.817Z,2.60
2023-03-08T02:35:30.694Z,2.70
2023-03-08T02:39:32.534Z,2.80
2023-03-08T02:43:34.428Z,2.90
2023-03-08T02:47:36.597Z,2.90
2023-03-08T02:51:38.403Z,2.90
2023-03-08T02:55:40.357Z,2.90
2023-03-08T02:59:42.181Z,3.00
2023-03-08T03:03:44.271Z,3.00
2023-03-08T03:07:52.674Z,3.00
2023-03-08T03:12:00.644Z,3.00
2023-03-08T03:16:09.956Z,3.10
2023-03-08T03:20:18.702Z,3.10
2023-03-08T03:24:26.613Z,3.00
2023-03-08T03:28:28.456Z,3.00
2023-03-08T03:32:30.416Z,2.90
2023-03-08T03:36:32.563Z,2.90
2023-03-08T03:40:34.321Z,3.00
2023-03-08T03:44:36.357Z,2.90
2023-03-08T03:48:38.587Z,3.00
2023-03-08T03:56:58.343Z,3.00
2023-03-08T04:01:00.250Z,3.10
2023-03-08T04:05:02.172Z,3.10
2023-03-08T04:09:06.990Z,3.00
2023-03-08T04:13:13.432Z,3.20
2023-03-08T04:17:15.335Z,3.20
2023-03-08T04:21:17.275Z,3.20
2023-03-08T04:25:19.162Z,3.20
2023-03-08T04:29:21.948Z,3.20
2023-03-08T04:33:24.187Z,3.20
2023-03-08T04:37:25.945Z,3.30
2023-03-08T04:41:27.762Z,3.30
2023-03-08T04:45:29.478Z,3.30
2023-03-08T04:49:31.278Z,3.30
2023-03-08T04:53:33.385Z,3.30
2023-03-08T04:57:35.399Z,3.30
2023-03-08T05:01:37.315Z,3.20
2023-03-08T05:05:50.107Z,3.30
2023-03-08T05:09:55.073Z,3.10
2023-03-08T05:13:58.542Z,3.20
2023-03-08T05:18:00.453Z,3.30
2023-03-08T05:22:02.326Z,3.40
2023-03-08T05:26:05.034Z,3.40
2023-03-08T05:30:07.602Z,3.30
2023-03-08T05:34:10.727Z,3.20
2023-03-08T05:38:12.634Z,3.30
2023-03-08T05:42:14.677Z,3.40
2023-03-08T05:46:18.862Z,3.30
2023-03-08T05:50:20.787Z,3.50
2023-03-08T05:54:22.825Z,3.50
2023-03-08T05:58:24.720Z,3.40
2023-03-08T06:02:26.749Z,3.40
2023-03-08T06:06:28.851Z,3.40
2023-03-08T06:10:30.997Z,3.50
2023-03-08T06:14:33.003Z,3.50
2023-03-08T06:18:39.586Z,3.60
2023-03-08T06:22:43.879Z,3.70
2023-03-08T06:26:45.957Z,3.70
2023-03-08T06:30:53.840Z,3.80
2023-03-08T06:35:10.246Z,3.80
2023-03-08T06:39:12.219Z,3.90
2023-03-08T06:43:14.055Z,3.90
2023-03-08T06:47:15.994Z,3.90
2023-03-08T06:51:18.379Z,4.00
2023-03-08T06:55:20.188Z,3.80
2023-03-08T06:59:22.285Z,3.90
2023-03-08T07:03:24.079Z,4.00
2023-03-08T07:07:25.906Z,4.00
2023-03-08T07:11:29.737Z,4.20
2023-03-08T07:15:31.588Z,4.50
2023-03-08T07:19:33.467Z,4.30
2023-03-08T07:23:39.435Z,4.30
2023-03-08T07:27:41.479Z,4.40
2023-03-08T07:31:43.413Z,4.50
2023-03-08T07:35:45.206Z,4.50
2023-03-08T07:39:47.059Z,4.30
2023-03-08T07:43:49.524Z,4.40
2023-03-08T07:47:53.926Z,4.40
2023-03-08T07:52:07.743Z,4.20
2023-03-08T07:56:10.471Z,4.20
2023-03-08T08:00:12.872Z,4.20
2023-03-08T08:04:14.926Z,4.20
2023-03-08T08:08:16.872Z,4.30
2023-03-08T08:12:18.897Z,4.20
2023-03-08T08:16:20.805Z,4.10
2023-03-08T08:20:22.707Z,4.00
2023-03-08T08:24:24.783Z,4.20
2023-03-08T08:28:26.881Z,4.30
2023-03-08T08:32:28.815Z,4.40
2023-03-08T08:36:30.786Z,4.40
2023-03-08T08:40:32.586Z,4.30
2023-03-08T08:44:34.622Z,4.50
2023-03-08T08:48:38.230Z,4.50
2023-03-08T08:52:40.005Z,4.50
2023-03-08T08:56:43.590Z,4.40
2023-03-08T09:00:45.806Z,4.70
2023-03-08T09:04:47.747Z,4.50
2023-03-08T09:08:54.942Z,4.30
2023-03-08T09:12:57.936Z,4.30
2023-03-08T09:17:00.629Z,4.50
2023-03-08T09:21:02.546Z,4.30
2023-03-08T09:25:05.958Z,4.40
2023-03-08T09:29:08.090Z,4.60
2023-03-08T09:33:09.971Z,4.70
2023-03-08T09:37:12.312Z,4.70
2023-03-08T09:41:39.495Z,4.60
2023-03-08T09:45:41.470Z,4.80
2023-03-08T09:49:43.474Z,4.80
2023-03-08T09:54:00.080Z,4.70
2023-03-08T09:58:19.914Z,4.60
2023-03-08T10:02:47.872Z,4.50
2023-03-08T10:07:20.136Z,4.50
2023-03-08T10:11:31.182Z,4.50
2023-03-08T10:15:36.500Z,4.60
2023-03-08T10:20:11.553Z,4.70
2023-03-08T10:24:36.717Z,4.70
2023-03-08T10:28:42.409Z,4.70
2023-03-08T10:32:46.885Z,4.70
2023-03-08T10:37:00.822Z,4.70
2023-03-08T10:41:14.684Z,4.80
2023-03-08T10:45:23.164Z,4.60
2023-03-08T10:49:28.160Z,4.60
2023-03-08T10:53:31.940Z,4.70
2023-03-08T10:57:34.589Z,4.90
2023-03-08T11:01:49.614Z,4.80
2023-03-08T11:05:58.742Z,4.80
2023-03-08T11:10:19.067Z,4.80
2023-03-08T11:14:21.252Z,4.80
2023-03-08T11:18:54.248Z,4.80
2023-03-08T11:23:28.271Z,4.80
2023-03-08T11:28:22.641Z,4.80
2023-03-08T11:32:56.116Z,4.70
2023-03-08T11:37:22.436Z,4.70
2023-03-08T11:41:47.187Z,4.90
2023-03-08T11:46:00.962Z,5.20
2023-03-08T11:50:30.234Z,5.20
2023-03-08T11:54:52.382Z,5.40
2023-03-08T11:59:37.156Z,5.50
2023-03-08T12:03:43.693Z,5.60
2023-03-08T12:08:16.410Z,5.30
2023-03-08T12:12:30.573Z,5.30
2023-03-08T12:16:50.027Z,5.50
2023-03-08T12:20:52.883Z,5.60
2023-03-08T12:25:09.881Z,5.70
2023-03-08T12:29:22.860Z,5.80
2023-03-08T12:33:25.477Z,6.00
2023-03-08T12:37:29.374Z,6.20
2023-03-08T12:41:34.396Z,6.20
2023-03-08T12:45:36.300Z,6.30
2023-03-08T12:50:10.366Z,6.30
2023-03-08T12:54:21.521Z,6.20
2023-03-08T12:58:23.316Z,6.30
2023-03-08T13:02:33.234Z,6.20
2023-03-08T13:06:53.130Z,6.30
2023-03-08T13:11:13.543Z,6.60
2023-03-08T13:15:15.406Z,6.60
2023-03-08T13:19:25.992Z,6.70
2023-03-08T13:23:46.779Z,6.80
2023-03-08T13:28:10.922Z,6.90
2023-03-08T13:32:23.804Z,6.90
2023-03-08T13:36:31.054Z,7.10
2023-03-08T13:40:32.940Z,7.10
2023-03-08T13:44:34.778Z,7.00
2023-03-08T13:48:36.691Z,7.00
2023-03-08T13:52:39.531Z,7.20
2023-03-08T13:56:41.728Z,7.30
2023-03-08T14:00:43.646Z,7.20
2023-03-08T14:04:45.691Z,7.00
2023-03-08T14:08:47.829Z,6.90
2023-03-08T14:12:51.377Z,6.80
2023-03-08T14:16:53.929Z,6.90
2023-03-08T14:21:14.859Z,6.80
2023-03-08T14:25:29.421Z,6.60
2023-03-08T14:29:35.178Z,6.60
2023-03-08T14:33:42.537Z,6.50
2023-03-08T14:37:45.728Z,6.40
2023-03-08T14:41:47.860Z,6.20
2023-03-08T14:45:56.037Z,6.20
2023-03-08T14:50:08.701Z,6.10
2023-03-08T14:54:35.863Z,6.10
2023-03-08T14:58:40.690Z,6.00
2023-03-08T15:02:43.257Z,6.00
2023-03-08T15:06:45.274Z,5.90
2023-03-08T15:10:47.352Z,5.90
2023-03-08T15:14:49.239Z,5.90
2023-03-08T15:18:51.325Z,6.00
2023-03-08T15:22:56.736Z,5.80
2023-03-08T15:26:58.626Z,5.80
2023-03-08T15:31:00.948Z,5.80
2023-03-08T15:35:03.579Z,5.90
2023-03-08T15:39:05.917Z,5.80
2023-03-08T15:43:08.210Z,5.70
2023-03-08T15:47:10.504Z,5.70
2023-03-08T15:51:20.275Z,5.60
2023-03-08T15:55:23.581Z,5.40
2023-03-08T15:59:25.840Z,5.40
2023-03-08T16:03:31.053Z,5.50
2023-03-08T16:07:33.278Z,5.60
2023-03-08T16:11:35.140Z,5.50
2023-03-08T16:15:41.584Z,5.50
2023-03-08T16:19:45.608Z,5.50
2023-03-08T16:23:47.516Z,5.50
2023-03-08T16:27:49.364Z,5.50
2023-03-08T16:31:51.480Z,5.70
2023-03-08T16:35:56.925Z,5.70
2023-03-08T16:40:02.155Z,5.60
2023-03-08T16:44:05.486Z,5.60
2023-03-08T16:48:23.674Z,5.60
2023-03-08T16:52:28.930Z,5.50
2023-03-08T16:56:36.298Z,5.50
2023-03-08T17:00:38.545Z,5.30
2023-03-08T17:04:40.637Z,5.40
2023-03-08T17:08:42.594Z,5.40
2023-03-08T17:12:44.772Z,5.30
2023-03-08T17:16:47.870Z,5.40
2023-03-08T17:20:49.834Z,5.50
2023-03-08T17:24:57.165Z,5.40
2023-03-08T17:28:59.134Z,5.30
2023-03-08T17:33:06.106Z,5.20
2023-03-08T17:37:11.449Z,5.20
2023-03-08T17:41:17.228Z,5.20
2023-03-08T17:45:22.042Z,5.10
2023-03-08T17:49:25.192Z,5.10
2023-03-08T17:53:30.296Z,5.10
2023-03-08T17:57:32.218Z,5.00
2023-03-08T18:01:36.245Z,5.00
2023-03-08T18:05:38.389Z,5.00
2023-03-08T18:09:40.937Z,5.00
2023-03-08T18:13:42.847Z,5.10
2023-03-08T18:17:47.815Z,5.20
2023-03-08T18:21:54.706Z,5.10
2023-03-08T18:26:34.958Z,5.00
2023-03-08T18:30:40.543Z,5.10
2023-03-08T18:35:22.661Z,5.10
2023-03-08T18:39:39.751Z,5.10
2023-03-08T18:48:23.513Z,5.00
2023-03-08T18:56:50.249Z,5.00
2023-03-08T19:00:59.113Z,4.90
2023-03-08T19:05:28.629Z,4.90
2023-03-08T19:09:43.642Z,4.90
2023-03-08T19:13:48.060Z,5.00
2023-03-08T19:18:28.254Z,5.00
2023-03-08T19:23:56.645Z,5.00
2023-03-08T19:42:17.107Z,5.00
2023-03-08T19:46:19.237Z,5.10
2023-03-08T19:50:21.272Z,5.20
2023-03-08T19:54:57.709Z,5.20
2023-03-08T19:59:45.317Z,5.20
2023-03-08T20:03:56.967Z,5.20
2023-03-08T20:08:19.145Z,5.10
2023-03-08T20:12:56.795Z,5.10
2023-03-08T20:17:04.743Z,5.10
2023-03-08T20:21:09.880Z,5.10
2023-03-08T20:25:12.769Z,5.20
2023-03-08T20:29:15.548Z,5.10
2023-03-08T20:33:17.527Z,5.10
2023-03-08T20:37:21.932Z,5.20
2023-03-08T20:41:23.794Z,5.20
2023-03-08T20:45:26.174Z,5.10
2023-03-08T20:49:28.670Z,5.10
2023-03-08T20:53:30.927Z,5.10
2023-03-08T20:57:32.674Z,5.20
2023-03-08T21:01:34.604Z,5.20
2023-03-08T21:05:38.994Z,5.20
2023-03-08T21:09:41.956Z,5.20
2023-03-08T21:13:44.424Z,5.30
2023-03-08T21:17:46.450Z,5.30
2023-03-08T21:21:48.493Z,5.30
2023-03-08T21:25:53.830Z,5.30
2023-03-08T21:29:55.711Z,5.20
2023-03-08T21:33:58.030Z,5.30
2023-03-08T21:38:00.002Z,5.20
2023-03-08T21:42:02.085Z,5.20
2023-03-08T21:46:04.842Z,5.20
2023-03-08T21:50:09.909Z,5.10
2023-03-08T21:54:11.794Z,5.10
2023-03-08T21:58:13.687Z,5.10
2023-03-08T22:02:15.525Z,5.10
2023-03-08T22:06:17.719Z,5.10
2023-03-08T22:10:20.297Z,5.00
2023-03-08T22:14:22.075Z,5.00
2023-03-08T22:18:24.025Z,5.10
2023-03-08T22:22:25.841Z,5.00
2023-03-08T22:26:28.751Z,5.10
2023-03-08T22:30:30.554Z,5.10
2023-03-08T22:34:32.614Z,5.10
2023-03-08T22:38:34.453Z,5.10
2023-03-08T22:42:36.301Z,5.10
2023-03-08T22:46:38.116Z,5.20
2023-03-08T22:50:47.942Z,5.10
2023-03-08T22:54:49.776Z,5.00
2023-03-08T22:58:51.898Z,5.00
2023-03-08T23:02:56.716Z,5.00
2023-03-08T23:06:58.573Z,5.10
2023-03-08T23:11:00.430Z,5.10
2023-03-08T23:15:02.713Z,5.10
2023-03-08T23:19:04.562Z,5.00
2023-03-08T23:23:07.659Z,5.10
2023-03-08T23:27:09.766Z,5.00
2023-03-08T23:31:14.328Z,5.10
2023-03-08T23:35:16.314Z,5.10
2023-03-08T23:39:18.072Z,5.10
2023-03-08T23:43:19.932Z,5.10
2023-03-08T23:47:21.698Z,5.10
2023-03-08T23:51:24.397Z,5.10
2023-03-08T23:55:26.254Z,5.10
2023-03-08T23:59:28.013Z,5.10
